Time;durP1;ratioP1;P1;durP2;ratioP2;P2;SDS_P1;SDS_P2;PMS_P1;PMS_P2;Temp;Humidity;BMP_temperature;BMP_pressure;BME280_temperature;BME280_humidity;BME280_pressure;Samples;Min_cycle;Max_cycle;Signal;HPM_P1;HPM_P2
2023/11/13 00:00:48;;;;;;;4.97;2.10;;;;;;;8.39;76.21;96901.50;6207780;22;20489;-89
2023/11/13 00:03:15;;;;;;;4.50;1.98;;;;;;;8.35;75.97;96897.88;6232124;22;20042;-89
2023/11/13 00:05:41;;;;;;;;;;;;;;;8.47;76.34;96916.81;6207554;22;20047;-88
2023/11/13 00:08:08;;;;;;;4.60;2.00;;;;;;;8.16;76.83;96893.19;6257867;22;19919;-88
2023/11/13 00:10:34;;;;;;;5.38;1.92;;;;;;;7.79;76.93;96831.03;6231441;22;20110;-89
2023/11/13 00:15:54;;;;;;;7.68;2.50;;;;;;;7.95;76.67;96882.66;6288874;22;20234;-89
2023/11/13 00:18:33;;;;;;;12.50;2.90;;;;;;;7.79;76.72;96871.81;6243313;22;20019;-90
2023/11/13 00:21:04;;;;;;;8.75;2.22;;;;;;;7.62;77.01;96853.16;6209432;22;20084;-88
2023/11/13 00:23:30;;;;;;;2.92;1.65;;;;;;;7.61;77.22;96876.81;6209830;22;20030;-90
2023/11/13 00:28:39;;;;;;;8.18;2.40;;;;;;;7.20;78.08;96854.50;6321585;22;20102;-90
2023/11/13 00:31:05;;;;;;;7.50;2.80;;;;;;;7.34;77.64;96892.09;6293549;22;20030;-89
2023/11/13 00:33:31;;;;;;;6.57;1.67;;;;;;;7.45;77.51;96914.09;6240153;22;20015;-91
2023/11/13 00:35:58;;;;;;;4.93;1.35;;;;;;;7.47;77.46;96919.97;6293891;22;20010;-91
2023/11/13 00:38:24;;;;;;;4.40;1.20;;;;;;;7.49;77.56;96926.66;6239300;22;20019;-89
2023/11/13 00:40:50;;;;;;;1.40;0.85;;;;;;;7.41;76.90;96918.66;6290123;22;20024;-92
2023/11/13 00:43:16;;;;;;;3.53;1.30;;;;;;;7.32;77.57;96913.41;6239713;22;20023;-90
2023/11/13 00:45:43;;;;;;;0.97;0.97;;;;;;;7.13;77.00;96897.00;6239050;22;20033;-91
2023/11/13 00:48:09;;;;;;;4.47;1.00;;;;;;;6.88;77.92;96878.13;6240792;22;20026;-90
2023/11/13 00:50:35;;;;;;;0.70;0.70;;;;;;;6.74;78.21;96870.41;6290403;22;20018;-90
2023/11/13 00:53:02;;;;;;;0.90;0.90;;;;;;;7.15;78.35;96928.13;6261946;22;20023;-90
2023/11/13 00:55:28;;;;;;;0.90;0.80;;;;;;;6.88;78.38;96908.00;6238298;22;20019;-92
2023/11/13 00:57:55;;;;;;;0.98;0.82;;;;;;;6.92;78.49;96916.25;6237541;22;20015;-90
2023/11/13 01:00:21;;;;;;;0.98;0.80;;;;;;;6.85;78.39;96891.63;6238958;22;20041;-88
2023/11/13 01:02:47;;;;;;;0.70;0.70;;;;;;;7.09;78.23;96920.59;6238689;22;20027;-89
2023/11/13 01:05:13;;;;;;;0.75;0.75;;;;;;;6.81;77.97;96886.88;6266134;22;20011;-89
2023/11/13 01:07:40;;;;;;;1.20;0.80;;;;;;;7.22;78.82;96958.19;6263379;22;20015;-91
2023/11/13 01:10:06;;;;;;;0.93;0.80;;;;;;;6.96;78.43;96909.00;6263976;22;20383;-90
2023/11/13 01:12:33;;;;;;;1.25;1.00;;;;;;;7.29;78.76;96955.66;6263553;22;20064;-89
2023/11/13 01:15:02;;;;;;;1.88;0.95;;;;;;;6.93;78.23;96902.34;6265399;22;20353;-90
2023/11/13 01:17:29;;;;;;;0.73;0.73;;;;;;;7.17;78.48;96942.13;6266842;22;20043;-90
2023/11/13 01:19:56;;;;;;;0.70;0.70;;;;;;;7.15;78.76;96944.44;6291306;22;20015;-89
2023/11/13 01:22:22;;;;;;;1.00;0.90;;;;;;;6.80;78.86;96900.81;6288767;22;20452;-89
2023/11/13 01:24:49;;;;;;;1.02;0.93;;;;;;;6.70;78.84;96868.75;6240363;22;20019;-89
2023/11/13 01:27:15;;;;;;;1.52;0.90;;;;;;;6.96;78.57;96926.09;6294444;22;20022;-90
2023/11/13 01:29:42;;;;;;;0.80;0.80;;;;;;;6.78;78.83;96901.16;6297266;22;20124;-89
2023/11/13 01:32:12;;;;;;;1.30;0.90;;;;;;;6.74;79.42;96905.69;6272915;22;20023;-89
2023/11/13 01:34:38;;;;;;;0.82;0.80;;;;;;;6.60;79.16;96905.31;6252219;22;20047;-89
2023/11/13 01:37:06;;;;;;;1.70;0.88;;;;;;;6.51;79.35;96901.97;6302911;22;20082;-89
2023/11/13 01:39:36;;;;;;;0.80;0.80;;;;;;;6.71;79.08;96930.81;6277398;22;20049;-89
2023/11/13 01:42:02;;;;;;;0.80;0.80;;;;;;;6.47;79.22;96892.94;6249446;22;20044;-87
2023/11/13 01:44:32;;;;;;;1.65;0.80;;;;;;;6.66;78.95;96960.94;6257404;22;20031;-88
2023/11/13 01:46:59;;;;;;;0.80;0.80;;;;;;;6.60;79.66;96946.03;6209538;22;20018;-90
2023/11/13 01:49:25;;;;;;;0.95;0.93;;;;;;;6.45;79.49;96949.47;6207784;22;20012;-89
2023/11/13 01:51:54;;;;;;;0.80;0.80;;;;;;;6.26;79.49;96934.59;6206933;22;20054;-90
2023/11/13 01:54:22;;;;;;;1.20;1.00;;;;;;;6.55;80.23;96971.47;6233299;22;20020;-90
2023/11/13 01:56:50;;;;;;;0.90;0.90;;;;;;;6.23;80.02;96927.16;6207884;22;20019;-89
2023/11/13 01:59:17;;;;;;;1.00;0.90;;;;;;;6.31;80.04;96969.63;6230418;22;20027;-88
2023/11/13 02:01:44;;;;;;;0.80;0.80;;;;;;;6.55;80.07;97006.75;6230068;22;20024;-90
2023/11/13 02:04:10;;;;;;;;;;;;;;;6.52;80.05;97009.38;6212380;22;20022;-91
2023/11/13 02:06:35;;;;;;;1.27;0.90;;;;;;;6.43;79.94;97011.44;6210252;22;19990;-90
2023/11/13 02:09:05;;;;;;;0.95;0.88;;;;;;;5.99;79.24;96951.59;6214000;22;20042;-88
2023/11/13 02:11:34;;;;;;;1.08;0.93;;;;;;;6.48;80.12;97005.78;6216019;22;20015;-89
2023/11/13 02:14:00;;;;;;;0.90;0.90;;;;;;;6.38;79.99;96984.53;6241034;22;20026;-91
2023/11/13 02:16:26;;;;;;;2.63;0.90;;;;;;;6.02;79.56;96948.97;6237611;22;20015;-90
2023/11/13 02:18:54;;;;;;;1.13;0.98;;;;;;;6.19;79.64;96985.13;6238460;22;20040;-89
2023/11/13 02:21:21;;;;;;;1.00;0.90;;;;;;;6.07;79.96;96958.81;6236960;22;20019;-88
2023/11/13 02:23:48;;;;;;;0.90;0.90;;;;;;;6.22;79.59;96979.81;6285957;22;20520;-90
2023/11/13 02:26:15;;;;;;;0.80;0.80;;;;;;;5.97;79.13;96959.28;6235786;22;20035;-90
2023/11/13 02:28:42;;;;;;;1.23;0.95;;;;;;;6.01;79.77;96952.03;6237707;22;20015;-89
2023/11/13 02:31:08;;;;;;;0.93;0.90;;;;;;;5.96;79.30;96958.50;6238900;22;20453;-89
2023/11/13 02:33:34;;;;;;;1.60;0.90;;;;;;;6.41;79.73;97019.13;6237877;22;20075;-89
2023/11/13 02:36:02;;;;;;;1.20;1.10;;;;;;;6.09;79.13;96959.25;6236606;22;20015;-89
2023/11/13 02:38:28;;;;;;;1.88;0.90;;;;;;;6.17;78.58;96963.00;6260373;22;20022;-89
2023/11/13 02:40:56;;;;;;;1.05;0.95;;;;;;;6.54;78.79;97029.63;6314519;22;20019;-91
2023/11/13 02:43:22;;;;;;;4.35;1.08;;;;;;;6.06;78.53;96971.59;6286941;22;20030;-91
2023/11/13 02:45:48;;;;;;;0.95;0.93;;;;;;;5.88;78.49;96959.38;6238520;22;20030;-90
2023/11/13 02:48:14;;;;;;;1.55;1.00;;;;;;;5.92;78.44;96959.47;6263173;22;20511;-90
2023/11/13 02:50:40;;;;;;;1.80;1.20;;;;;;;6.22;78.46;97001.50;6263200;22;20038;-91
2023/11/13 02:53:06;;;;;;;2.58;1.00;;;;;;;6.05;78.52;96969.22;6240114;22;20074;-91
2023/11/13 02:55:32;;;;;;;1.65;1.10;;;;;;;6.43;78.48;97039.38;6238335;22;20330;-90
2023/11/13 02:57:58;;;;;;;0.90;0.90;;;;;;;5.83;77.70;96946.84;6240452;22;20360;-91
2023/11/13 03:00:26;;;;;;;1.60;1.10;;;;;;;6.39;77.47;97040.38;6240081;22;20021;-91
2023/11/13 03:02:53;;;;;;;1.00;1.00;;;;;;;5.83;77.81;96944.13;6264282;22;20038;-90
2023/11/13 03:05:19;;;;;;;0.85;0.85;;;;;;;6.13;77.92;97029.91;6263939;22;20015;-89
2023/11/13 03:07:45;;;;;;;1.13;1.02;;;;;;;6.01;77.93;97022.56;6291535;22;20029;-92
2023/11/13 03:10:11;;;;;;;1.90;0.95;;;;;;;6.17;77.75;97050.56;6242728;22;20015;-89
2023/11/13 03:13:00;;;;;;;1.92;1.10;;;;;;;6.30;77.90;97060.28;6267536;22;20089;-88
2023/11/13 03:15:26;;;;;;;1.55;1.30;;;;;;;6.13;77.65;97055.09;6244522;22;20019;-89
2023/11/13 03:18:18;;;;;;;1.20;1.00;;;;;;;6.23;78.55;97062.00;6265246;22;20038;-86
2023/11/13 03:20:46;;;;;;;1.38;1.10;;;;;;;6.07;78.30;97027.41;6320078;22;20029;-89
2023/11/13 03:23:19;;;;;;;2.15;1.20;;;;;;;6.02;78.18;97014.06;6266482;22;20042;-86
2023/11/13 03:26:03;;;;;;;3.20;1.38;;;;;;;6.13;78.19;97035.34;6249898;22;20092;-90
2023/11/13 03:28:29;;;;;;;1.73;1.40;;;;;;;5.85;78.42;96992.56;6291075;22;20015;-92
2023/11/13 03:30:56;;;;;;;1.53;1.30;;;;;;;6.25;78.31;97073.28;6241119;22;20092;-90
2023/11/13 03:33:24;;;;;;;2.50;1.52;;;;;;;6.10;78.17;97044.94;6292820;22;20015;-90
2023/11/13 03:35:51;;;;;;;1.92;1.30;;;;;;;6.24;77.93;97050.00;6243309;22;20050;-91
2023/11/13 03:38:18;;;;;;;3.95;1.30;;;;;;;5.82;77.80;96995.97;6244006;22;20022;-89
2023/11/13 03:40:44;;;;;;;1.55;1.17;;;;;;;6.08;78.20;97034.41;6242704;22;20046;-91
2023/11/13 03:43:10;;;;;;;4.25;1.35;;;;;;;5.83;78.56;96986.72;6242006;22;20019;-92
2023/11/13 03:45:37;;;;;;;1.42;1.30;;;;;;;5.84;78.18;96988.28;6271904;22;20019;-89
2023/11/13 03:48:03;;;;;;;2.47;1.58;;;;;;;5.97;77.84;97002.66;6273220;22;20019;-89
2023/11/13 03:50:31;;;;;;;4.70;2.22;;;;;;;5.80;77.94;97023.41;6279247;22;20045;-88
2023/11/13 03:52:58;;;;;;;;;;;;;;;6.13;78.95;97071.38;6272865;22;20019;-88
2023/11/13 03:55:28;;;;;;;5.78;2.00;;;;;;;5.95;78.83;97046.38;6296839;22;19918;-88
2023/11/13 03:58:02;;;;;;;1.67;1.30;;;;;;;5.83;78.34;97020.03;6279894;22;20068;-88
2023/11/13 04:00:28;;;;;;;2.17;1.63;;;;;;;6.26;78.74;97070.25;6242909;22;20033;-88
2023/11/13 04:02:54;;;;;;;1.63;1.47;;;;;;;6.13;78.46;97070.59;6219149;22;20027;-88
2023/11/13 04:05:23;;;;;;;1.98;1.33;;;;;;;5.87;78.78;97026.34;6247135;22;20309;-88
2023/11/13 04:07:49;;;;;;;2.30;1.40;;;;;;;6.09;78.59;97079.41;6154464;23;20024;-90
2023/11/13 04:10:16;;;;;;;2.65;1.75;;;;;;;6.02;78.66;97091.91;6182571;23;20103;-89
2023/11/13 04:12:47;;;;;;;2.88;1.80;;;;;;;5.76;78.93;97038.78;6205903;23;20040;-88
2023/11/13 04:15:15;;;;;;;4.25;2.72;;;;;;;5.80;78.81;97041.59;6182102;23;20083;-90
2023/11/13 04:17:44;;;;;;;1.80;1.60;;;;;;;5.90;78.94;97049.28;6207815;23;20060;-91
2023/11/13 04:20:18;;;;;;;2.70;1.70;;;;;;;6.20;78.67;97104.16;6189049;23;20132;-90
2023/11/13 04:23:08;;;;;;;1.50;1.30;;;;;;;5.97;79.40;97081.31;6219161;23;20015;-90
2023/11/13 04:31:28;;;;;;;1.45;1.30;;;;;;;5.70;80.73;97072.66;6296871;22;20098;-91
2023/11/13 04:37:14;;;;;;;1.75;1.50;;;;;;;6.19;80.12;97126.19;6296501;22;20020;-90
2023/11/13 04:39:43;;;;;;;2.45;1.67;;;;;;;5.83;80.03;97059.91;6232183;22;20079;-92
2023/11/13 04:42:09;;;;;;;5.67;2.77;;;;;;;6.11;80.10;97111.59;6205441;22;20016;-91
2023/11/13 04:44:55;;;;;;;2.92;1.60;;;;;;;6.26;80.15;97129.13;6245658;22;20020;-89
2023/11/13 04:47:26;;;;;;;2.05;1.60;;;;;;;5.95;79.81;97097.13;6219223;22;20019;-89
2023/11/13 04:49:55;;;;;;;1.50;1.30;;;;;;;6.00;80.56;97122.09;6270367;22;20083;-90
2023/11/13 04:52:27;;;;;;;;;;;;;;;6.06;80.45;97139.75;6206506;23;20114;-91
2023/11/13 04:55:43;;;;;;;3.40;1.80;;;;;;;5.73;81.47;97123.47;6193092;23;19920;-92
2023/11/13 04:58:09;;;;;;;3.30;1.65;;;;;;;5.50;81.83;97087.84;6177675;23;20025;-91
2023/11/13 05:00:36;;;;;;;1.25;1.15;;;;;;;5.95;82.02;97140.50;6202102;23;20044;-91
2023/11/13 05:03:02;;;;;;;4.53;1.63;;;;;;;5.63;81.54;97110.34;6152313;23;20021;-90
2023/11/13 05:05:29;;;;;;;1.85;1.38;;;;;;;5.67;81.65;97119.41;6152141;23;20253;-91
2023/11/13 05:07:56;;;;;;;1.30;1.20;;;;;;;5.72;81.97;97143.56;6152719;23;20079;-92
2023/11/13 05:10:24;;;;;;;2.00;1.65;;;;;;;5.91;82.67;97158.53;6155733;23;20020;-90
2023/11/13 05:13:03;;;;;;;1.95;1.45;;;;;;;5.69;82.11;97108.22;6132608;23;20027;-90
2023/11/13 05:19:09;;;;;;;1.88;1.38;;;;;;;5.74;82.76;97163.00;6098287;23;20032;-91
2023/11/13 05:21:38;;;;;;;3.67;2.03;;;;;;;5.54;82.95;97115.06;6097762;23;20050;-89
2023/11/13 05:24:30;;;;;;;3.03;1.58;;;;;;;5.79;82.91;97168.19;6097845;23;20041;-91
2023/11/13 05:26:56;;;;;;;4.45;2.70;;;;;;;5.66;83.48;97136.75;6120028;23;20025;-90
2023/11/13 05:29:23;;;;;;;3.90;1.85;;;;;;;5.87;83.02;97171.97;6092153;23;20105;-90
2023/11/13 05:31:49;;;;;;;;;;;;;;;5.87;83.24;97174.69;6118385;23;20081;-91
2023/11/13 05:34:42;;;;;;;3.90;1.60;;;;;;;5.88;83.08;97177.03;6116611;23;19917;-91
2023/11/13 05:37:09;;;;;;;2.30;1.33;;;;;;;5.74;83.51;97156.78;6173271;23;20030;-92
2023/11/13 05:40:00;;;;;;;3.58;1.80;;;;;;;5.96;83.92;97188.16;6124387;23;20027;-89
2023/11/13 05:42:37;;;;;;;5.75;1.70;;;;;;;5.86;83.69;97173.06;6118120;23;20666;-89
2023/11/13 05:45:28;;;;;;;2.30;1.25;;;;;;;5.88;83.85;97193.31;6141345;23;20499;-90
2023/11/13 05:48:19;;;;;;;4.22;1.80;;;;;;;5.51;84.01;97131.97;6068547;23;20033;-93
2023/11/13 05:50:45;;;;;;;3.63;1.83;;;;;;;5.88;83.99;97184.41;6072417;23;20022;-92
2023/11/13 05:53:11;;;;;;;2.95;1.65;;;;;;;5.87;84.06;97175.47;6115393;23;20112;-90
2023/11/13 05:56:29;;;;;;;2.08;1.40;;;;;;;6.07;83.55;97202.91;6126369;23;20019;-90
2023/11/13 05:59:17;;;;;;;3.55;1.60;;;;;;;6.06;83.32;97209.44;6268221;23;20015;-91
2023/11/13 06:01:48;;;;;;;1.77;1.50;;;;;;;5.98;83.58;97213.81;6189656;23;20004;-90
2023/11/13 06:04:15;;;;;;;1.65;1.30;;;;;;;5.94;84.16;97204.78;6163924;23;20024;-90
2023/11/13 06:06:44;;;;;;;2.53;1.40;;;;;;;5.99;84.14;97199.13;6189381;23;20097;-93
2023/11/13 06:09:32;;;;;;;1.90;1.50;;;;;;;5.97;83.72;97171.56;6169501;22;20018;-90
2023/11/13 06:12:12;;;;;;;9.40;1.40;;;;;;;6.17;83.19;97199.75;6219232;23;20020;-91
2023/11/13 06:14:41;;;;;;;1.33;1.15;;;;;;;6.33;83.09;97232.47;6218041;23;20024;-91
2023/11/13 06:17:23;;;;;;;2.30;1.30;;;;;;;6.30;83.33;97233.94;6194413;23;20000;-94
2023/11/13 06:19:55;;;;;;;0.95;0.93;;;;;;;6.15;83.19;97234.56;6172209;23;19997;-90
2023/11/13 06:22:26;;;;;;;2.88;1.42;;;;;;;5.78;83.73;97176.69;6219614;23;20080;-91
2023/11/13 06:28:51;;;;;;;1.95;1.20;;;;;;;6.47;83.29;97270.94;6265745;22;20024;-92
2023/11/13 06:32:01;;;;;;;2.30;1.60;;;;;;;6.34;82.88;97277.47;6249881;22;20037;-92
2023/11/13 06:34:58;;;;;;;1.30;1.20;;;;;;;5.91;80.23;97258.84;6249568;22;20028;-93
2023/11/13 06:41:09;;;;;;;0.95;0.90;;;;;;;5.74;78.44;97293.13;6294164;22;20024;-90
2023/11/13 06:43:52;;;;;;;1.02;1.00;;;;;;;5.82;78.57;97308.50;6328039;22;20027;-92
2023/11/13 06:46:20;;;;;;;1.90;1.10;;;;;;;5.60;78.51;97312.34;6273691;22;20015;-91
2023/11/13 06:48:49;;;;;;;1.60;1.30;;;;;;;5.58;78.63;97308.38;6300945;22;20015;-93
2023/11/13 06:51:33;;;;;;;2.00;1.15;;;;;;;5.48;78.15;97298.72;6251994;22;20006;-91
2023/11/13 06:54:23;;;;;;;2.33;1.73;;;;;;;5.43;78.58;97293.50;6175870;23;20029;-94
2023/11/13 06:56:51;;;;;;;2.75;2.08;;;;;;;5.76;78.84;97358.66;6149204;23;20022;-90
2023/11/13 07:00:03;;;;;;;2.28;1.65;;;;;;;5.42;78.76;97325.19;6144991;23;20391;-90
2023/11/13 07:02:47;;;;;;;2.53;1.48;;;;;;;5.51;78.52;97359.59;6151507;23;20065;-91
2023/11/13 07:05:15;;;;;;;2.10;1.80;;;;;;;4.92;79.16;97282.63;6129123;23;19997;-94
2023/11/13 07:07:44;;;;;;;4.45;1.40;;;;;;;4.82;79.35;97276.78;6171396;23;20065;-91
2023/11/13 07:10:12;;;;;;;1.65;1.30;;;;;;;5.15;79.10;97334.59;6124860;23;20025;-92
2023/11/13 07:13:20;;;;;;;2.38;1.52;;;;;;;5.32;78.05;97373.56;6178753;23;20549;-95
2023/11/13 07:16:26;;;;;;;1.98;1.00;;;;;;;4.58;78.14;97293.59;6126429;23;20099;-92
2023/11/13 10:20:46;;;;;;;2.47;1.00;;;;;;;5.00;75.16;97651.13;6317486;22;20053;-90
2023/11/13 10:23:37;;;;;;;1.20;1.10;;;;;;;5.05;75.26;97648.28;6301167;22;20045;-89
2023/11/13 10:26:39;;;;;;;1.33;1.15;;;;;;;5.09;74.34;97658.16;6312380;22;19999;-89
2023/11/13 10:36:39;;;;;;;1.10;1.00;;;;;;;5.03;74.42;97636.94;6321473;22;20079;-90
2023/11/13 10:39:11;;;;;;;1.10;1.00;;;;;;;5.28;74.29;97671.38;6256057;22;20027;-90
2023/11/13 10:42:27;;;;;;;2.22;1.17;;;;;;;5.09;73.98;97649.22;6308474;22;19999;-88
2023/11/13 10:45:46;;;;;;;1.20;1.10;;;;;;;5.03;73.96;97655.91;6334400;22;20023;-91
2023/11/13 10:48:45;;;;;;;2.60;1.10;;;;;;;5.18;72.84;97685.25;6247078;23;20004;-91
2023/11/13 10:51:14;;;;;;;1.10;0.95;;;;;;;4.73;72.60;97634.03;6247187;23;20027;-91
2023/11/13 10:53:54;;;;;;;1.50;1.20;;;;;;;4.98;72.76;97678.53;6246951;23;20059;-90
2023/11/13 10:56:30;;;;;;;3.15;1.33;;;;;;;4.89;72.72;97640.59;6173737;23;19996;-89
2023/11/13 10:59:13;;;;;;;0.98;0.90;;;;;;;4.68;71.76;97647.75;6246624;23;20032;-91
2023/11/13 11:01:43;;;;;;;1.58;0.82;;;;;;;4.81;72.19;97649.53;6217170;23;20031;-90
2023/11/13 11:04:42;;;;;;;1.77;1.00;;;;;;;5.16;72.02;97715.34;6239529;23;20076;-89
2023/11/13 11:07:13;;;;;;;3.30;1.30;;;;;;;4.97;71.44;97682.38;6221460;23;20020;-90
2023/11/13 11:10:08;;;;;;;1.45;1.00;;;;;;;5.10;71.58;97711.22;6227340;23;20031;-90
2023/11/13 11:12:58;;;;;;;1.42;1.00;;;;;;;4.84;70.81;97678.66;6202145;22;20084;-89
2023/11/13 11:15:28;;;;;;;1.42;1.10;;;;;;;5.14;70.49;97717.59;6210652;23;20000;-89
2023/11/13 11:21:16;;;;;;;;;;;;;;;5.17;69.76;97729.72;6189421;23;20024;-88
2023/11/13 11:24:12;;;;;;;1.20;1.10;;;;;;;5.06;69.46;97712.16;6239809;23;19916;-89
2023/11/13 11:27:05;;;;;;;1.05;1.00;;;;;;;4.69;70.26;97652.81;6244749;22;20080;-90
2023/11/13 11:29:42;;;;;;;1.10;1.00;;;;;;;5.08;69.77;97705.31;6193340;23;20008;-89
2023/11/13 11:32:19;;;;;;;0.90;0.82;;;;;;;5.23;69.51;97742.00;6245202;22;20024;-89
2023/11/13 11:35:01;;;;;;;1.92;1.15;;;;;;;5.23;69.28;97749.28;6241140;23;20108;-91
2023/11/13 11:37:37;;;;;;;1.10;1.00;;;;;;;5.29;69.49;97745.31;6215325;23;20107;-90
2023/11/13 11:40:31;;;;;;;0.90;0.90;;;;;;;5.22;69.54;97763.97;6217729;23;20000;-90
2023/11/13 11:43:38;;;;;;;2.15;0.95;;;;;;;5.02;69.97;97736.34;6225161;23;20028;-90
2023/11/13 11:46:08;;;;;;;4.45;1.30;;;;;;;5.24;69.61;97767.16;6194035;23;20016;-90
2023/11/13 11:48:37;;;;;;;1.83;1.02;;;;;;;5.27;70.33;97774.66;6190838;23;20036;-89
2023/11/13 11:51:26;;;;;;;1.90;1.20;;;;;;;5.21;69.82;97775.91;6191233;22;20000;-88
2023/11/13 11:54:38;;;;;;;2.15;1.30;;;;;;;4.75;69.93;97687.88;6223094;23;20020;-90
2023/11/13 11:57:10;;;;;;;1.52;1.20;;;;;;;4.98;70.11;97734.59;6225211;23;20020;-89
2023/11/13 12:00:04;;;;;;;2.33;0.90;;;;;;;5.10;69.67;97764.56;6228589;23;20020;-91
2023/11/13 12:02:56;;;;;;;2.80;1.50;;;;;;;5.23;70.65;97777.22;6184191;23;20032;-90
2023/11/13 12:05:42;;;;;;;1.35;1.20;;;;;;;5.10;70.86;97765.38;6165909;23;20001;-89
2023/11/13 12:08:48;;;;;;;1.40;1.25;;;;;;;5.19;70.35;97781.63;6161531;23;20061;-90
2023/11/13 12:14:18;;;;;;;5.30;1.45;;;;;;;4.76;72.68;97725.44;6259183;22;20111;-88
2023/11/13 12:17:11;;;;;;;4.40;1.67;;;;;;;5.19;72.76;97806.81;6221377;23;20007;-89
2023/11/13 12:19:57;;;;;;;2.60;1.50;;;;;;;4.89;72.52;97759.72;6221573;23;20004;-92
2023/11/13 12:22:59;;;;;;;6.00;1.60;;;;;;;5.16;72.82;97803.94;6270478;22;20000;-88
2023/11/13 12:25:55;;;;;;;3.67;1.80;;;;;;;4.70;72.98;97742.94;6226303;23;20024;-91
2023/11/13 12:28:24;;;;;;;2.40;1.40;;;;;;;4.88;72.62;97763.56;6196205;23;20016;-90
2023/11/13 12:31:23;;;;;;;2.03;1.52;;;;;;;5.21;72.76;97803.00;6224029;22;20031;-88
2023/11/13 12:34:43;;;;;;;5.10;1.55;;;;;;;4.99;72.57;97749.72;6242834;23;20035;-89
2023/11/13 12:37:14;;;;;;;3.50;1.80;;;;;;;5.29;72.30;97813.06;6241641;23;20075;-88
2023/11/13 13:48:44;;;;;;;2.55;1.30;;;;;;;5.23;68.11;97838.69;6280298;22;20031;-90
2023/11/13 13:53:05;;;;;;;1.00;1.00;;;;;;;5.23;68.40;97846.81;6323270;22;20033;-90
2023/11/13 13:56:42;;;;;;;4.00;1.70;;;;;;;4.90;69.21;97807.38;6292434;22;20051;-90
2023/11/13 14:00:32;;;;;;;1.75;1.35;;;;;;;5.49;69.58;97887.53;6308286;22;20023;-90
2023/11/13 14:04:32;;;;;;;1.55;1.25;;;;;;;5.52;69.42;97895.03;6246554;22;20059;-90
2023/11/13 14:37:55;;;;;;;3.47;2.17;;;;;;;5.60;71.46;97886.94;6261334;22;20023;-92
2023/11/13 15:29:13;;;;;;;3.28;2.10;;;;;;;5.43;74.63;97949.22;6277811;22;20008;-91
2023/11/13 15:32:12;;;;;;;3.10;1.77;;;;;;;5.09;74.64;97887.56;6271158;22;20000;-91
2023/11/13 15:38:35;;;;;;;5.30;2.15;;;;;;;5.58;74.15;97948.00;6271868;22;20028;-92
2023/11/13 15:41:43;;;;;;;5.60;2.33;;;;;;;5.23;74.66;97904.53;6224475;22;20004;-89
2023/11/13 15:50:42;;;;;;;7.07;2.95;;;;;;;5.17;75.62;97920.09;6273024;22;20008;-91
2023/11/13 16:21:32;;;;;;;5.82;3.03;;;;;;;5.10;75.82;97918.94;6303843;22;20008;-92
2023/11/13 16:25:40;;;;;;;3.35;2.15;;;;;;;5.15;76.42;97922.31;6243956;22;20020;-90
2023/11/13 17:49:54;;;;;;;3.80;2.42;;;;;;;6.37;74.75;97909.09;6289147;22;20091;-90
2023/11/13 17:52:51;;;;;;;3.88;2.47;;;;;;;6.33;74.66;97894.56;6282152;22;20020;-91
2023/11/13 18:12:58;;;;;;;1.85;1.63;;;;;;;6.43;74.40;97898.88;6229658;23;20024;-91
2023/11/13 18:15:49;;;;;;;2.85;1.75;;;;;;;6.47;74.70;97905.25;6203619;23;20008;-90
2023/11/13 22:02:03;;;;;;;5.43;1.73;;;;;;;6.72;77.36;97950.59;6313085;22;20023;-91
2023/11/13 22:07:59;;;;;;;2.85;1.92;;;;;;;6.15;78.41;97872.03;6308865;22;20051;-93
2023/11/13 22:10:56;;;;;;;3.20;1.73;;;;;;;6.10;78.25;97869.50;6237427;22;20107;-95
2023/11/13 22:14:21;;;;;;;6.15;1.77;;;;;;;6.13;78.16;97878.94;6263821;22;20035;-93
2023/11/13 22:19:45;;;;;;;3.57;1.80;;;;;;;6.08;78.24;97856.25;6321246;22;20035;-93
2023/11/13 22:25:27;;;;;;;2.88;1.48;;;;;;;6.25;77.35;97879.06;6193128;23;19919;-91
2023/11/13 22:27:53;;;;;;;2.53;1.75;;;;;;;6.09;77.49;97857.84;6234968;23;20016;-92
2023/11/13 22:30:24;;;;;;;2.78;1.67;;;;;;;6.14;77.75;97865.03;6235440;23;20039;-92
2023/11/13 22:33:18;;;;;;;1.92;1.65;;;;;;;6.38;77.09;97907.16;6229161;23;20035;-94
2023/11/13 22:35:51;;;;;;;2.78;1.80;;;;;;;5.99;76.99;97844.59;6194563;22;20016;-94
2023/11/13 22:38:47;;;;;;;3.22;1.70;;;;;;;6.42;76.77;97919.75;6301838;22;20021;-96
2023/11/13 22:41:18;;;;;;;2.17;1.63;;;;;;;6.06;76.64;97871.22;6247901;22;20026;-94
2023/11/13 22:44:08;;;;;;;2.53;1.50;;;;;;;6.34;76.85;97920.56;6246744;22;20030;-92
2023/11/13 22:46:37;;;;;;;1.65;1.42;;;;;;;6.08;77.21;97885.28;6234579;23;20063;-91
2023/11/13 22:49:30;;;;;;;2.85;1.80;;;;;;;6.31;76.71;97922.00;6186528;23;20068;-92
2023/11/13 22:51:57;;;;;;;3.08;1.55;;;;;;;5.79;76.61;97832.41;6191202;23;20481;-93
2023/11/13 22:54:26;;;;;;;4.00;1.88;;;;;;;6.13;76.38;97882.44;6217888;23;20016;-91
2023/11/13 22:56:59;;;;;;;2.53;1.80;;;;;;;5.93;76.53;97864.88;6214807;23;20030;-94
2023/11/13 22:59:25;;;;;;;1.88;1.50;;;;;;;6.17;75.80;97899.66;6182830;23;20024;-91
2023/11/13 23:05:27;;;;;;;1.77;1.40;;;;;;;6.33;75.86;97922.50;6205535;23;20016;-89
2023/11/13 23:08:43;;;;;;;1.88;1.50;;;;;;;5.77;76.08;97831.97;6246066;23;20066;-89
2023/11/13 23:11:10;;;;;;;1.55;1.33;;;;;;;5.74;75.14;97826.38;6244363;23;20107;-89
2023/11/13 23:14:44;;;;;;;1.60;1.50;;;;;;;6.43;75.24;97928.72;6189266;23;20020;-92
2023/11/13 23:17:10;;;;;;;6.03;1.48;;;;;;;5.80;74.98;97825.91;6215716;23;20020;-93
2023/11/13 23:19:36;;;;;;;2.42;1.73;;;;;;;6.00;74.41;97862.47;6215301;23;20024;-90
2023/11/13 23:22:04;;;;;;;1.63;1.45;;;;;;;6.08;74.76;97864.38;6225917;23;20019;-91
2023/11/13 23:24:34;;;;;;;;;;;;;;;6.52;75.26;97943.91;6193563;23;20028;-90
2023/11/13 23:27:01;;;;;;;2.33;1.50;;;;;;;6.17;74.33;97888.00;6190590;23;19919;-91
2023/11/13 23:29:39;;;;;;;1.55;1.20;;;;;;;6.19;75.03;97959.84;6210222;22;20020;31
2023/11/13 23:32:05;;;;;;;1.15;1.00;;;;;;;5.37;75.91;97875.41;6185973;23;20080;-93
2023/11/13 23:34:32;;;;;;;3.97;1.30;;;;;;;5.40;77.03;97892.94;6237651;23;20062;-94
2023/11/13 23:36:58;;;;;;;0.93;0.93;;;;;;;5.62;76.88;97938.91;6178146;23;20019;-93
2023/11/13 23:39:30;;;;;;;2.17;0.95;;;;;;;5.47;77.42;97914.19;6263529;23;20047;-93
2023/11/13 23:42:57;;;;;;;1.00;1.00;;;;;;;5.75;77.80;97939.91;6189569;23;20024;-92
2023/11/13 23:45:24;;;;;;;1.40;1.10;;;;;;;5.45;77.57;97886.59;6187210;23;20016;-92
2023/11/13 23:47:51;;;;;;;2.90;1.20;;;;;;;5.57;77.73;97913.88;6191182;23;20027;-93
2023/11/13 23:50:35;;;;;;;1.55;1.20;;;;;;;5.36;78.27;97881.13;6190648;23;20026;-93
2023/11/13 23:53:17;;;;;;;1.80;1.00;;;;;;;5.31;78.42;97906.47;6216804;23;19996;-94
2023/11/13 23:55:44;;;;;;;1.23;1.10;;;;;;;5.27;78.26;97891.94;6189648;23;20020;-92
2023/11/13 23:58:20;;;;;;;2.45;1.10;;;;;;;5.53;78.16;97907.47;6235949;23;20016;-95
